Time;durP1;ratioP1;P1;durP2;ratioP2;P2;SDS_P1;SDS_P2;PMS_P1;PMS_P2;Temp;Humidity;BMP_temperature;BMP_pressure;BME280_temperature;BME280_humidity;BME280_pressure;Samples;Min_cycle;Max_cycle;Signal;HPM_P1;HPM_P2
2023/11/30 00:01:48;;;;;;;32.33;20.65;;;;;;;7.75;82.89;99594.47;5050689;28;20045;-63
2023/11/30 00:04:15;;;;;;;30.73;19.70;;;;;;;7.77;83.26;99585.91;5055673;28;20041;-62
2023/11/30 00:06:43;;;;;;;30.70;18.95;;;;;;;7.72;82.95;99595.09;5054258;28;20041;-64
2023/11/30 00:09:10;;;;;;;32.03;20.50;;;;;;;7.76;83.24;99595.25;5047498;28;20053;-63
2023/11/30 00:11:37;;;;;;;29.80;20.45;;;;;;;7.72;82.94;99586.84;5053733;28;20053;-64
2023/11/30 00:14:05;;;;;;;29.83;20.10;;;;;;;7.83;82.80;99585.41;5056621;28;20048;-64
2023/11/30 00:16:32;;;;;;;31.25;21.13;;;;;;;7.63;83.30;99577.03;5047785;28;20563;-63
2023/11/30 00:18:59;;;;;;;32.50;20.90;;;;;;;7.59;83.79;99573.31;5060413;28;20052;-61
2023/11/30 00:21:27;;;;;;;30.33;19.70;;;;;;;7.78;83.39;99577.38;5035789;28;20072;-62
2023/11/30 00:23:54;;;;;;;30.85;19.83;;;;;;;7.64;83.16;99576.72;5051763;28;20045;-62
2023/11/30 00:26:21;;;;;;;31.17;20.45;;;;;;;7.64;83.54;99573.97;5067627;28;20056;-61
2023/11/30 00:28:54;;;;;;;32.35;20.70;;;;;;;7.65;83.26;99563.81;5067009;28;20044;-61
2023/11/30 00:31:21;;;;;;;31.58;20.15;;;;;;;7.70;83.58;99552.69;5060850;28;20442;-63
2023/11/30 00:33:49;;;;;;;34.15;20.92;;;;;;;7.75;83.55;99550.59;5051937;28;20064;-63
2023/11/30 00:36:16;;;;;;;31.67;20.92;;;;;;;7.66;83.05;99549.78;5053268;28;20049;-62
2023/11/30 00:38:43;;;;;;;35.85;20.75;;;;;;;7.95;82.83;99538.97;5042418;28;20520;-62
2023/11/30 00:41:14;;;;;;;32.42;20.45;;;;;;;7.48;82.67;99529.00;5035905;28;20052;-62
2023/11/30 00:43:42;;;;;;;33.65;20.98;;;;;;;7.50;83.93;99523.19;5051988;28;20053;-62
2023/11/30 00:46:14;;;;;;;32.25;20.40;;;;;;;7.45;84.12;99521.41;5018834;28;20949;-62
2023/11/30 00:48:41;;;;;;;34.78;21.33;;;;;;;7.73;83.52;99513.66;5061073;28;20068;-61
2023/11/30 00:51:12;;;;;;;32.03;21.48;;;;;;;7.37;83.58;99507.72;5055255;28;20049;-61
2023/11/30 00:53:39;;;;;;;41.47;27.27;;;;;;;7.37;84.11;99513.19;5054228;28;20056;-63
2023/11/30 00:56:10;;;;;;;36.33;22.45;;;;;;;7.23;85.36;99526.22;5055568;28;20420;-61
2023/11/30 00:58:37;;;;;;;;;;;;;;;7.16;86.02;99518.50;5051568;28;20082;-61
2023/11/30 01:01:04;;;;;;;29.92;20.90;;;;;;;7.05;86.68;99511.72;5056214;28;19921;-61
2023/11/30 01:03:31;;;;;;;32.30;21.33;;;;;;;6.84;87.55;99502.47;5062457;28;20067;-62
2023/11/30 01:05:59;;;;;;;32.55;20.92;;;;;;;6.82;88.45;99513.75;5048756;28;20056;-61
2023/11/30 01:08:26;;;;;;;35.00;21.33;;;;;;;6.74;88.89;99511.81;5047636;28;20489;-62
2023/11/30 01:10:53;;;;;;;30.50;20.63;;;;;;;6.65;89.54;99519.19;5044039;28;20057;-62
2023/11/30 01:13:20;;;;;;;30.30;20.80;;;;;;;6.80;88.62;99496.84;5038314;28;20060;-61
2023/11/30 01:15:49;;;;;;;35.25;20.77;;;;;;;6.61;89.31;99506.44;5043047;28;20041;-62
2023/11/30 01:18:16;;;;;;;30.55;19.00;;;;;;;6.48;89.57;99501.88;5064867;28;20061;-63
2023/11/30 01:20:43;;;;;;;31.67;19.63;;;;;;;6.68;89.25;99514.97;5058652;28;20044;-61
2023/11/30 01:23:11;;;;;;;27.45;19.15;;;;;;;7.01;87.82;99497.03;5034959;28;20056;-62
2023/11/30 01:25:38;;;;;;;28.15;18.35;;;;;;;7.12;85.69;99492.06;5048886;28;20414;-62
2023/11/30 01:28:06;;;;;;;31.90;19.27;;;;;;;7.02;85.41;99486.91;5054406;28;20056;-62
2023/11/30 01:30:33;;;;;;;27.85;18.88;;;;;;;7.06;85.31;99485.16;5055861;28;20048;-61
2023/11/30 01:33:24;;;;;;;30.55;18.73;;;;;;;6.95;85.21;99494.78;5056162;28;20048;-62
2023/11/30 01:35:55;;;;;;;26.55;18.42;;;;;;;6.99;85.51;99498.50;5020899;28;20067;-62
2023/11/30 01:38:23;;;;;;;29.30;18.75;;;;;;;7.10;84.41;99506.06;5054555;28;20635;-62
2023/11/30 01:41:07;;;;;;;31.08;19.23;;;;;;;7.05;84.80;99505.41;5050999;28;20045;-61
2023/11/30 01:43:34;;;;;;;25.90;18.38;;;;;;;6.91;84.91;99493.78;5067800;28;20053;-63
2023/11/30 01:46:02;;;;;;;27.75;18.52;;;;;;;6.95;84.94;99492.84;5063289;28;20061;-62
2023/11/30 01:48:31;;;;;;;29.35;18.92;;;;;;;6.97;85.04;99489.78;5048760;28;20052;-63
2023/11/30 01:50:59;;;;;;;30.35;19.50;;;;;;;7.13;84.54;99485.47;5053917;28;20060;-61
2023/11/30 01:53:27;;;;;;;27.38;18.27;;;;;;;7.18;84.01;99483.41;5055198;28;20063;-62
2023/11/30 01:55:55;;;;;;;26.27;18.25;;;;;;;7.26;83.37;99487.25;5050149;28;20057;-62
2023/11/30 01:58:22;;;;;;;25.83;17.27;;;;;;;7.36;82.78;99482.25;5069968;28;20045;-62
2023/11/30 02:00:50;;;;;;;26.05;16.55;;;;;;;7.37;82.30;99488.53;5053208;28;20060;-61
2023/11/30 02:03:17;;;;;;;26.90;18.23;;;;;;;7.09;82.15;99482.56;5033675;28;20712;-62
2023/11/30 02:05:47;;;;;;;26.00;16.60;;;;;;;7.29;82.19;99481.13;5053239;28;20049;-62
2023/11/30 02:08:14;;;;;;;24.38;16.42;;;;;;;7.19;82.43;99486.91;5054180;28;20049;-61
2023/11/30 02:10:41;;;;;;;24.25;17.38;;;;;;;7.21;82.46;99474.53;5045885;28;20057;-62
2023/11/30 02:13:09;;;;;;;25.90;17.27;;;;;;;7.35;82.13;99471.63;5053191;28;20515;-62
2023/11/30 02:15:36;;;;;;;26.20;16.55;;;;;;;7.22;81.90;99486.28;5050510;28;20049;-62
2023/11/30 02:18:03;;;;;;;23.50;17.38;;;;;;;7.19;82.20;99493.22;5057518;28;20040;-61
2023/11/30 02:20:31;;;;;;;27.63;17.25;;;;;;;7.35;82.14;99485.31;5035812;28;20504;-62
2023/11/30 02:22:58;;;;;;;24.27;16.85;;;;;;;7.31;82.11;99476.13;5047581;28;20739;-62
2023/11/30 02:25:25;;;;;;;25.95;17.50;;;;;;;7.19;81.84;99465.81;5044163;28;20046;-61
2023/11/30 02:27:52;;;;;;;26.98;17.45;;;;;;;7.22;81.83;99469.88;5057195;28;20052;-61
2023/11/30 02:30:20;;;;;;;29.30;18.30;;;;;;;7.06;82.50;99477.72;5049793;28;20680;-62
2023/11/30 02:32:48;;;;;;;25.35;17.27;;;;;;;6.88;84.03;99475.28;5050033;28;20068;-62
2023/11/30 02:35:15;;;;;;;26.95;17.25;;;;;;;6.77;84.63;99469.31;5044974;28;20072;-62
2023/11/30 02:37:42;;;;;;;28.38;17.75;;;;;;;6.75;84.62;99463.34;5043810;28;20057;-62
2023/11/30 02:40:10;;;;;;;24.33;16.95;;;;;;;7.16;83.55;99457.44;5045241;28;20052;-61
2023/11/30 02:42:37;;;;;;;23.65;17.77;;;;;;;7.16;82.87;99450.03;5052237;28;20052;-62
2023/11/30 02:45:05;;;;;;;23.90;16.13;;;;;;;7.16;82.94;99449.22;5025373;28;20698;-62
2023/11/30 02:47:32;;;;;;;23.10;15.10;;;;;;;7.24;82.34;99443.75;5052237;28;20063;-63
2023/11/30 02:49:59;;;;;;;22.75;16.52;;;;;;;6.90;82.78;99434.72;5051815;28;20053;-62
2023/11/30 02:52:27;;;;;;;24.10;15.70;;;;;;;7.13;82.39;99419.75;5065340;28;20053;-62
2023/11/30 02:54:54;;;;;;;24.23;15.50;;;;;;;7.29;81.68;99407.16;5052987;28;20056;-62
2023/11/30 02:57:21;;;;;;;23.52;16.05;;;;;;;7.05;82.23;99410.41;5044871;28;20061;-61
2023/11/30 02:59:48;;;;;;;25.23;15.40;;;;;;;7.25;81.97;99406.22;5049615;28;20060;-62
2023/11/30 03:02:16;;;;;;;25.75;15.43;;;;;;;7.00;82.02;99402.38;5050244;28;20056;-61
2023/11/30 03:04:44;;;;;;;30.27;15.85;;;;;;;6.96;82.34;99422.50;5050376;28;20053;-61
2023/11/30 03:07:12;;;;;;;24.80;16.33;;;;;;;6.95;82.68;99413.47;5051597;28;20104;-68
2023/11/30 03:09:39;;;;;;;21.50;15.52;;;;;;;6.94;83.42;99416.53;5051220;28;20049;-62
2023/11/30 03:12:06;;;;;;;21.15;15.35;;;;;;;6.91;82.62;99423.44;5050575;28;20052;-62
2023/11/30 03:14:34;;;;;;;27.00;16.15;;;;;;;6.92;83.04;99433.28;5051643;28;20127;-62
2023/11/30 03:17:01;;;;;;;22.52;14.90;;;;;;;6.89;82.38;99422.16;5053333;28;20109;-62
2023/11/30 03:19:28;;;;;;;23.27;16.38;;;;;;;6.72;83.83;99412.00;5054564;28;20048;-62
2023/11/30 03:21:55;;;;;;;23.63;16.25;;;;;;;6.81;83.16;99410.88;5053243;28;20053;-62
2023/11/30 03:24:23;;;;;;;23.25;15.65;;;;;;;7.09;83.41;99413.31;5053535;28;20057;-61
2023/11/30 03:26:50;;;;;;;27.92;17.45;;;;;;;7.02;82.39;99411.06;5048873;28;20056;-61
2023/11/30 03:29:17;;;;;;;24.08;15.20;;;;;;;7.15;81.99;99403.81;5051768;28;20056;-61
2023/11/30 03:31:44;;;;;;;23.65;15.98;;;;;;;7.25;81.60;99393.34;5050820;28;20052;-62
2023/11/30 03:34:12;;;;;;;23.52;15.80;;;;;;;7.06;82.28;99392.84;5046831;28;20079;-61
2023/11/30 03:36:39;;;;;;;23.48;15.82;;;;;;;7.19;81.96;99391.88;5053003;28;20049;-62
2023/11/30 03:39:07;;;;;;;23.33;15.68;;;;;;;7.04;81.58;99389.66;5046117;28;20137;-62
2023/11/30 03:41:35;;;;;;;20.95;15.10;;;;;;;7.04;81.56;99383.34;5049480;28;20089;-61
2023/11/30 03:44:03;;;;;;;26.20;15.68;;;;;;;6.63;81.51;99400.22;5051675;28;20051;-62
2023/11/30 03:46:30;;;;;;;23.85;14.88;;;;;;;6.54;82.90;99392.00;5031597;28;20057;-62
2023/11/30 03:48:57;;;;;;;21.90;14.88;;;;;;;6.82;82.07;99385.13;5052801;28;20057;-61
2023/11/30 03:51:24;;;;;;;25.55;15.07;;;;;;;6.67;81.47;99380.13;5052180;28;20056;-61
2023/11/30 03:53:52;;;;;;;20.42;14.10;;;;;;;6.71;81.42;99378.34;5047744;28;20048;-61
2023/11/30 03:56:19;;;;;;;24.77;13.63;;;;;;;6.81;81.21;99378.06;5050767;28;20056;-62
2023/11/30 03:58:46;;;;;;;21.63;13.68;;;;;;;7.00;81.21;99371.44;5052110;28;20041;-63
2023/11/30 04:01:21;;;;;;;22.52;14.30;;;;;;;7.01;80.40;99375.81;5049453;28;20059;-62
2023/11/30 04:03:49;;;;;;;22.35;14.30;;;;;;;7.03;80.30;99379.00;5052762;28;20052;-61
2023/11/30 04:06:21;;;;;;;20.33;14.85;;;;;;;6.72;80.34;99374.50;5051709;28;20044;-62
2023/11/30 04:08:50;;;;;;;21.10;14.23;;;;;;;6.80;80.67;99370.13;5051225;28;20064;-62
2023/11/30 04:11:17;;;;;;;20.88;14.00;;;;;;;6.73;81.43;99362.41;5047984;28;20056;-61
2023/11/30 04:13:45;;;;;;;20.38;14.05;;;;;;;7.01;81.04;99367.59;5058782;28;20056;-62
2023/11/30 04:16:18;;;;;;;21.15;14.10;;;;;;;6.87;80.66;99356.78;5050821;28;20892;-61
2023/11/30 04:18:46;;;;;;;21.67;14.20;;;;;;;6.90;80.68;99371.75;5066407;28;20053;-62
2023/11/30 04:21:13;;;;;;;21.23;13.98;;;;;;;6.76;81.04;99377.41;5050301;28;20156;-63
2023/11/30 04:23:41;;;;;;;17.95;12.43;;;;;;;6.82;80.95;99381.56;5052127;28;20053;-61
2023/11/30 04:26:08;;;;;;;20.15;13.23;;;;;;;6.85;81.39;99372.75;5062376;28;20405;-61
2023/11/30 04:28:35;;;;;;;20.13;13.68;;;;;;;6.65;81.86;99365.16;5052263;28;20541;-61
2023/11/30 04:31:02;;;;;;;20.30;14.05;;;;;;;6.85;81.92;99362.56;5067166;28;20068;-62
2023/11/30 04:33:30;;;;;;;19.50;13.18;;;;;;;6.70;81.86;99351.31;5051231;28;20044;-62
2023/11/30 04:35:57;;;;;;;21.92;13.68;;;;;;;6.96;81.89;99351.34;5047443;28;20049;-61
2023/11/30 04:38:24;;;;;;;22.63;14.13;;;;;;;7.29;80.36;99345.00;5048653;28;20045;-61
2023/11/30 04:40:51;;;;;;;20.55;13.20;;;;;;;7.23;79.09;99343.56;5055990;28;20049;-62
2023/11/30 04:43:18;;;;;;;20.15;13.05;;;;;;;7.16;79.40;99343.25;5051589;28;20053;-61
2023/11/30 04:45:52;;;;;;;18.73;12.52;;;;;;;6.95;79.18;99352.44;5051508;28;20055;-62
2023/11/30 04:48:20;;;;;;;18.23;12.40;;;;;;;6.77;79.22;99344.25;5046592;28;20049;-61
2023/11/30 04:50:47;;;;;;;17.63;11.73;;;;;;;6.72;78.49;99343.59;5048681;28;20175;-61
2023/11/30 04:53:14;;;;;;;19.20;11.45;;;;;;;6.81;78.47;99342.47;5046663;28;20053;-62
2023/11/30 04:55:42;;;;;;;19.77;12.50;;;;;;;6.77;78.26;99338.75;5051318;28;20053;-60
2023/11/30 04:58:09;;;;;;;19.35;11.77;;;;;;;6.84;77.56;99335.53;5047406;28;20056;-63
2023/11/30 05:00:36;;;;;;;18.45;11.57;;;;;;;7.06;77.43;99340.81;5052376;28;20056;-61
2023/11/30 05:03:03;;;;;;;18.48;11.82;;;;;;;6.74;78.11;99349.53;5069889;28;20064;-62
2023/11/30 05:05:31;;;;;;;19.67;11.57;;;;;;;7.13;77.61;99341.16;5050519;28;20048;-62
2023/11/30 05:07:58;;;;;;;17.23;11.57;;;;;;;7.09;76.28;99348.41;5053547;28;20404;-62
2023/11/30 05:10:25;;;;;;;15.48;10.98;;;;;;;7.19;76.20;99336.31;5055119;28;20164;-62
2023/11/30 05:12:53;;;;;;;17.17;10.32;;;;;;;7.30;74.80;99327.44;5053899;28;20497;-63
2023/11/30 05:15:20;;;;;;;15.77;10.82;;;;;;;7.34;74.61;99316.66;5058161;28;20069;-62
2023/11/30 05:17:47;;;;;;;18.80;10.35;;;;;;;7.47;73.76;99316.44;5052855;28;20045;-62
2023/11/30 05:20:14;;;;;;;16.92;10.60;;;;;;;7.35;73.87;99310.84;5054929;28;20053;-62
2023/11/30 05:22:41;;;;;;;16.73;10.25;;;;;;;7.25;74.08;99316.66;5051594;28;20053;-62
2023/11/30 05:25:09;;;;;;;19.60;10.68;;;;;;;7.19;74.41;99322.63;5050328;28;20056;-62
2023/11/30 05:27:37;;;;;;;20.30;10.68;;;;;;;6.99;74.66;99328.78;5053470;28;20057;-62
2023/11/30 05:30:04;;;;;;;18.45;10.23;;;;;;;7.36;73.49;99334.34;5050282;28;20053;-62
2023/11/30 05:32:32;;;;;;;16.55;10.38;;;;;;;7.16;73.65;99346.00;5055325;28;20053;-62
2023/11/30 05:34:59;;;;;;;16.33;10.30;;;;;;;7.23;73.79;99348.22;5055676;28;20777;-62
2023/11/30 05:37:26;;;;;;;16.75;9.93;;;;;;;7.21;72.38;99334.88;5053015;28;20649;-62
2023/11/30 05:39:53;;;;;;;18.77;10.38;;;;;;;6.95;73.77;99345.03;5055536;28;20072;-62
2023/11/30 05:42:21;;;;;;;13.93;9.95;;;;;;;7.08;73.66;99351.47;5055612;28;20056;-61
2023/11/30 05:44:48;;;;;;;16.85;11.20;;;;;;;7.14;72.60;99345.50;5054283;28;20127;-62
2023/11/30 05:47:15;;;;;;;19.10;10.95;;;;;;;7.24;71.52;99330.66;5062803;28;20254;-61
2023/11/30 05:49:42;;;;;;;16.17;10.18;;;;;;;7.31;70.84;99333.72;5044220;28;20064;-61
2023/11/30 05:52:10;;;;;;;16.35;10.07;;;;;;;7.35;70.92;99329.19;5053343;28;20088;-62
2023/11/30 05:54:37;;;;;;;17.48;9.93;;;;;;;7.22;70.94;99336.47;5062574;28;20120;-62
2023/11/30 05:57:04;;;;;;;17.02;8.18;;;;;;;7.00;70.55;99341.31;5054943;28;20082;-62
2023/11/30 05:59:32;;;;;;;12.20;7.45;;;;;;;7.20;70.32;99332.47;5048899;28;20489;-63
2023/11/30 06:02:01;;;;;;;11.45;6.70;;;;;;;7.40;69.51;99329.84;5052968;28;20041;-62
2023/11/30 06:04:28;;;;;;;10.82;7.07;;;;;;;7.28;69.44;99320.66;5036648;28;20396;-63
2023/11/30 06:06:55;;;;;;;11.38;6.68;;;;;;;7.22;69.05;99322.00;5049495;28;20048;-65
2023/11/30 06:09:23;;;;;;;11.60;6.72;;;;;;;7.32;69.58;99305.22;5054158;28;20048;-64
2023/11/30 06:11:52;;;;;;;14.57;7.50;;;;;;;7.56;69.47;99313.66;5054421;28;20512;-65
2023/11/30 06:14:19;;;;;;;12.73;7.55;;;;;;;7.38;69.10;99309.38;5054651;28;20045;-65
2023/11/30 06:16:46;;;;;;;15.05;7.32;;;;;;;7.59;69.16;99304.78;5035372;28;20049;-63
2023/11/30 06:19:13;;;;;;;11.95;8.05;;;;;;;7.43;68.76;99310.00;5049940;28;20495;-64
2023/11/30 06:21:40;;;;;;;13.98;7.63;;;;;;;7.60;68.86;99306.41;5045613;28;20057;-63
2023/11/30 06:24:08;;;;;;;11.60;7.20;;;;;;;7.80;68.41;99305.66;5045219;28;20056;-65
2023/11/30 06:26:35;;;;;;;11.93;7.75;;;;;;;7.70;67.51;99306.84;5053730;28;20044;-64
2023/11/30 06:29:02;;;;;;;12.85;7.65;;;;;;;7.63;67.51;99308.50;5052042;28;20060;-64
2023/11/30 06:31:29;;;;;;;12.63;7.70;;;;;;;7.60;67.09;99312.69;5053907;28;20053;-66
2023/11/30 06:33:57;;;;;;;19.55;8.43;;;;;;;7.60;67.46;99317.38;5054266;28;20055;-62
2023/11/30 06:36:24;;;;;;;13.00;7.32;;;;;;;7.63;67.42;99317.53;5047709;28;20056;-64
2023/11/30 06:38:51;;;;;;;12.55;7.15;;;;;;;7.59;66.65;99319.31;5052862;28;20053;-64
2023/11/30 06:41:18;;;;;;;13.90;7.85;;;;;;;7.53;67.19;99328.81;5051255;28;20109;-64
2023/11/30 06:43:46;;;;;;;12.07;7.85;;;;;;;7.43;67.84;99328.34;5050579;28;20187;-63
2023/11/30 06:46:22;;;;;;;13.95;7.57;;;;;;;7.24;68.17;99322.44;5053248;28;20053;-63
2023/11/30 06:49:01;;;;;;;14.25;7.10;;;;;;;7.34;65.79;99313.91;5053578;28;20411;-64
2023/11/30 06:51:36;;;;;;;14.60;7.32;;;;;;;7.22;66.20;99311.81;5055836;28;20048;-63
2023/11/30 06:54:04;;;;;;;12.65;6.63;;;;;;;7.38;65.56;99323.88;5053803;28;20079;-64
2023/11/30 06:56:31;;;;;;;11.50;6.90;;;;;;;7.29;65.10;99319.53;5051270;28;20051;-64
2023/11/30 06:58:59;;;;;;;11.30;7.10;;;;;;;6.99;65.53;99324.09;5059137;28;20059;-64
2023/11/30 07:01:27;;;;;;;11.52;6.97;;;;;;;7.02;65.93;99336.34;5054618;28;20124;-63
2023/11/30 07:03:54;;;;;;;13.77;7.20;;;;;;;7.20;66.08;99335.97;5046643;28;20056;-63
2023/11/30 07:06:22;;;;;;;11.65;7.20;;;;;;;6.97;65.97;99331.03;5056705;28;20423;-64
2023/11/30 07:08:50;;;;;;;13.25;6.95;;;;;;;6.71;66.69;99323.63;5050502;28;20132;-64
2023/11/30 07:11:17;;;;;;;15.30;8.07;;;;;;;6.81;67.01;99322.50;5049558;28;20084;-64
2023/11/30 07:13:44;;;;;;;11.40;7.32;;;;;;;6.80;67.39;99305.28;5065732;28;20061;-64
2023/11/30 07:16:13;;;;;;;11.57;7.13;;;;;;;7.17;66.81;99300.22;5058331;28;20057;-63
2023/11/30 07:18:40;;;;;;;15.00;7.85;;;;;;;6.86;66.73;99294.97;5041957;28;20057;-62
2023/11/30 07:21:17;;;;;;;14.00;8.07;;;;;;;6.71;67.68;99307.19;5056047;28;20048;-63
2023/11/30 07:23:44;;;;;;;16.98;8.40;;;;;;;6.56;68.18;99312.34;5054260;28;20049;-63
2023/11/30 07:26:13;;;;;;;14.50;7.70;;;;;;;6.53;68.73;99310.25;5067636;28;20052;-63
2023/11/30 07:28:41;;;;;;;10.73;7.25;;;;;;;6.54;68.73;99318.16;5071405;28;20067;-63
2023/11/30 07:31:17;;;;;;;12.30;8.27;;;;;;;6.72;68.26;99327.97;5074162;28;20044;-63
2023/11/30 07:33:44;;;;;;;12.13;7.20;;;;;;;7.13;66.86;99330.19;5051777;28;20048;-62
2023/11/30 07:36:11;;;;;;;12.55;7.45;;;;;;;7.10;66.45;99330.03;5046620;28;20056;-62
2023/11/30 07:38:40;;;;;;;18.27;8.60;;;;;;;6.77;67.23;99343.41;5052083;28;20496;-63
2023/11/30 07:41:08;;;;;;;15.73;8.18;;;;;;;7.04;66.99;99343.13;5048851;28;20558;-64
2023/11/30 07:43:35;;;;;;;14.23;8.35;;;;;;;6.78;66.88;99340.38;5050936;28;20501;-62
2023/11/30 07:46:02;;;;;;;15.55;7.57;;;;;;;6.74;67.14;99333.94;5037554;28;20045;-63
2023/11/30 07:48:30;;;;;;;13.45;7.93;;;;;;;6.75;67.42;99332.00;5043043;28;20060;-62
2023/11/30 07:50:57;;;;;;;12.85;7.85;;;;;;;6.91;67.43;99332.31;5041539;28;20036;-62
2023/11/30 07:53:24;;;;;;;17.85;8.00;;;;;;;6.87;67.62;99339.56;5051066;28;20063;-63
2023/11/30 07:55:56;;;;;;;32.33;9.48;;;;;;;6.68;67.49;99337.13;5045102;28;20064;-64
2023/11/30 07:58:23;;;;;;;37.70;9.50;;;;;;;6.76;67.93;99334.41;5031444;28;20456;-64
2023/11/30 08:00:53;;;;;;;23.52;8.45;;;;;;;6.74;67.69;99336.69;5048095;28;20049;-63
2023/11/30 08:03:20;;;;;;;15.75;8.23;;;;;;;6.55;68.29;99344.41;5055360;28;20060;-64
2023/11/30 08:05:48;;;;;;;15.30;6.95;;;;;;;6.51;68.76;99350.81;5033543;28;20057;-63
2023/11/30 08:08:16;;;;;;;12.95;6.97;;;;;;;6.65;67.93;99346.00;5047513;28;20397;-64
2023/11/30 08:10:43;;;;;;;16.23;7.20;;;;;;;6.55;67.57;99363.53;5055598;28;20040;-64
2023/11/30 08:13:12;;;;;;;14.32;7.57;;;;;;;6.68;67.30;99365.31;5040360;28;20049;-63
2023/11/30 08:15:40;;;;;;;11.68;6.68;;;;;;;6.63;66.69;99372.88;5046895;28;20045;-63
2023/11/30 08:18:08;;;;;;;13.85;6.85;;;;;;;6.91;66.69;99379.66;5035947;28;20053;-63
2023/11/30 08:20:35;;;;;;;11.93;6.70;;;;;;;6.68;66.42;99373.53;5050190;28;20060;-64
2023/11/30 08:23:02;;;;;;;18.42;7.43;;;;;;;6.69;66.29;99369.66;5048319;28;20127;-64
2023/11/30 08:25:30;;;;;;;11.65;6.75;;;;;;;6.72;66.91;99370.94;5050400;28;20068;-64
2023/11/30 08:27:57;;;;;;;10.18;7.05;;;;;;;6.85;66.62;99381.72;5049280;28;20045;-64
2023/11/30 08:30:26;;;;;;;13.07;7.38;;;;;;;6.74;66.98;99383.19;5040686;28;20041;-64
2023/11/30 08:32:53;;;;;;;14.65;7.22;;;;;;;6.65;66.89;99376.91;5050817;28;20048;-63
2023/11/30 08:35:21;;;;;;;14.75;8.35;;;;;;;6.62;67.58;99384.94;5052672;28;20056;-64
2023/11/30 08:37:48;;;;;;;11.43;7.75;;;;;;;6.62;67.88;99384.94;5055073;28;20519;-63
2023/11/30 08:40:16;;;;;;;14.48;7.85;;;;;;;6.62;68.12;99374.81;5053303;28;20048;-63
2023/11/30 08:42:43;;;;;;;12.23;7.97;;;;;;;6.87;67.66;99375.94;5038918;28;20050;-64
2023/11/30 08:45:11;;;;;;;15.50;8.00;;;;;;;6.85;67.60;99381.72;5051895;28;20049;-63
2023/11/30 08:47:39;;;;;;;14.85;8.65;;;;;;;6.65;68.38;99378.81;5051397;28;20684;-63
2023/11/30 08:50:07;;;;;;;12.48;7.97;;;;;;;6.70;68.71;99386.88;5055123;28;20049;-63
2023/11/30 08:52:34;;;;;;;16.10;8.35;;;;;;;6.77;68.71;99393.50;5055523;28;20056;-63
2023/11/30 08:55:02;;;;;;;21.33;8.63;;;;;;;6.66;69.35;99403.13;5066122;28;20053;-63
2023/11/30 08:57:29;;;;;;;18.83;9.57;;;;;;;6.64;69.59;99410.84;5042142;28;20519;-64
2023/11/30 08:59:57;;;;;;;19.25;9.60;;;;;;;6.82;69.10;99404.28;5049459;28;20057;-64
2023/11/30 09:02:24;;;;;;;26.10;11.13;;;;;;;6.96;68.67;99406.84;5051681;28;20056;-63
2023/11/30 09:04:52;;;;;;;27.63;10.65;;;;;;;6.72;69.86;99409.25;5055500;28;20175;-63
2023/11/30 09:07:19;;;;;;;22.30;10.52;;;;;;;6.66;70.16;99416.81;5055682;28;20057;-64
2023/11/30 09:09:46;;;;;;;16.23;10.07;;;;;;;6.61;70.36;99419.69;5054886;28;20551;-63
2023/11/30 09:12:17;;;;;;;30.23;11.30;;;;;;;6.65;69.66;99414.41;5045508;28;20069;-63
2023/11/30 09:14:45;;;;;;;19.25;10.18;;;;;;;6.69;69.53;99415.38;5050333;28;20049;-63
2023/11/30 09:17:12;;;;;;;21.60;10.93;;;;;;;6.76;69.83;99424.69;5046133;28;20049;-63
2023/11/30 09:19:39;;;;;;;18.95;10.50;;;;;;;6.51;70.39;99419.19;5055747;28;20060;-66
2023/11/30 09:22:07;;;;;;;17.95;9.70;;;;;;;6.57;70.21;99420.66;5054792;28;20041;-63
2023/11/30 09:24:35;;;;;;;21.38;10.13;;;;;;;7.04;68.94;99424.44;5053394;28;20541;-64
2023/11/30 09:27:02;;;;;;;19.35;9.60;;;;;;;7.05;67.69;99424.09;5045223;28;20060;-64
2023/11/30 09:29:30;;;;;;;25.25;9.90;;;;;;;7.08;67.61;99425.41;5067603;28;20056;-66
2023/11/30 09:31:57;;;;;;;27.05;9.45;;;;;;;7.09;67.24;99432.47;5050147;28;20049;-64
2023/11/30 09:34:27;;;;;;;23.77;10.02;;;;;;;6.76;68.37;99421.97;5061629;28;20528;-64
2023/11/30 09:36:54;;;;;;;27.23;9.77;;;;;;;6.89;68.18;99413.97;5052816;28;20056;-64
2023/11/30 09:39:22;;;;;;;27.83;10.35;;;;;;;6.63;68.82;99411.97;5052433;28;20053;-65
2023/11/30 09:41:51;;;;;;;49.35;18.73;;;;;;;6.62;69.15;99410.38;5053334;28;20057;-65
2023/11/30 09:44:19;;;;;;;40.90;13.20;;;;;;;6.79;68.96;99412.31;5050154;28;20508;-64
2023/11/30 09:46:46;;;;;;;23.73;11.27;;;;;;;6.95;67.87;99404.44;5039078;28;20049;-64
2023/11/30 09:49:14;;;;;;;26.27;9.45;;;;;;;6.63;67.96;99394.75;5050559;28;20045;-65
2023/11/30 09:51:44;;;;;;;14.80;7.97;;;;;;;6.58;68.36;99408.59;5034797;28;20049;-65
2023/11/30 09:54:12;;;;;;;;;;;;;;;6.62;68.07;99407.66;5042986;28;20057;-66
2023/11/30 09:56:40;;;;;;;13.20;7.70;;;;;;;6.61;68.59;99418.88;5059589;28;19920;-65
2023/11/30 09:59:07;;;;;;;15.48;8.57;;;;;;;6.66;68.50;99421.47;5046252;28;20056;-65
2023/11/30 10:01:35;;;;;;;20.33;8.98;;;;;;;6.92;67.69;99416.88;5043668;28;20049;-65
2023/11/30 10:04:15;;;;;;;12.60;7.28;;;;;;;7.12;67.10;99418.94;5049967;28;20448;-65
2023/11/30 10:06:46;;;;;;;15.43;7.57;;;;;;;7.06;66.25;99403.00;5052157;28;20061;-65
2023/11/30 10:09:14;;;;;;;17.42;8.43;;;;;;;7.27;65.87;99418.44;5050706;28;20049;-64
2023/11/30 10:11:42;;;;;;;19.50;8.05;;;;;;;7.44;65.03;99421.19;5051796;28;20055;-65
2023/11/30 10:14:10;;;;;;;21.73;8.40;;;;;;;7.52;64.63;99423.09;5059740;28;20044;-65
2023/11/30 10:16:37;;;;;;;26.50;8.70;;;;;;;7.35;63.73;99411.38;5050805;28;20049;-64
2023/11/30 10:19:04;;;;;;;13.27;7.53;;;;;;;7.29;62.67;99416.19;5050668;28;20053;-64
2023/11/30 10:21:37;;;;;;;12.85;6.95;;;;;;;7.15;63.26;99410.09;5047419;28;20068;-64
2023/11/30 10:24:05;;;;;;;;;;;;;;;7.07;63.26;99407.34;5045725;28;20049;-65
2023/11/30 10:26:34;;;;;;;12.77;6.45;;;;;;;6.98;62.73;99407.34;5048980;28;19940;-63
2023/11/30 10:29:06;;;;;;;13.68;6.43;;;;;;;6.98;63.11;99399.13;5047303;28;20050;-63
2023/11/30 10:31:35;;;;;;;13.68;6.97;;;;;;;7.12;62.86;99396.22;5042192;28;20049;-64
2023/11/30 10:34:07;;;;;;;12.00;6.80;;;;;;;7.22;62.21;99396.72;5050873;28;20729;-64
2023/11/30 10:36:35;;;;;;;11.82;6.65;;;;;;;7.21;62.60;99392.38;5048838;28;20060;-64
2023/11/30 10:39:15;;;;;;;12.07;6.88;;;;;;;7.42;61.89;99387.84;5053043;28;20063;-63
2023/11/30 10:41:54;;;;;;;11.65;5.78;;;;;;;7.55;61.29;99380.56;5045298;28;20519;-64
2023/11/30 10:44:27;;;;;;;12.40;6.70;;;;;;;7.44;60.24;99384.78;5053426;28;20060;-64
2023/11/30 10:46:56;;;;;;;14.82;6.38;;;;;;;7.71;60.42;99374.22;5052094;28;20049;-63
2023/11/30 10:49:24;;;;;;;12.48;6.85;;;;;;;7.70;59.78;99363.59;5051117;28;20052;-64
2023/11/30 10:51:54;;;;;;;12.93;7.00;;;;;;;7.68;60.51;99363.13;5047120;28;20057;-64
2023/11/30 10:54:36;;;;;;;12.93;6.78;;;;;;;7.72;59.79;99362.13;5049620;28;20492;-64
2023/11/30 10:57:04;;;;;;;11.15;6.50;;;;;;;7.79;60.00;99358.91;5053815;28;20056;-64
2023/11/30 10:59:32;;;;;;;12.00;7.22;;;;;;;7.78;59.40;99351.78;5050975;28;20365;-66
2023/11/30 11:02:00;;;;;;;12.30;7.05;;;;;;;7.75;59.80;99344.22;5060032;28;20056;-64
2023/11/30 11:04:28;;;;;;;13.18;7.05;;;;;;;7.79;59.70;99354.19;5045803;28;20053;-63
2023/11/30 11:07:35;;;;;;;;;;;;;;;;;;;;;
2023/11/30 11:11:09;;;;;;;12.40;6.78;;;;;;;7.64;59.85;99353.94;5048941;28;20052;-64
2023/11/30 11:13:45;;;;;;;13.25;6.70;;;;;;;7.71;59.83;99348.75;5053375;28;20403;-64
2023/11/30 11:16:12;;;;;;;13.57;7.07;;;;;;;7.89;59.42;99342.09;5049286;28;20065;-64
2023/11/30 11:18:42;;;;;;;11.02;6.07;;;;;;;8.09;58.55;99340.53;5051290;28;20048;-65
2023/11/30 11:21:24;;;;;;;11.27;6.07;;;;;;;7.90;58.18;99341.75;5043982;28;20551;-64
2023/11/30 11:23:52;;;;;;;11.20;6.22;;;;;;;7.68;59.21;99324.75;5051938;28;20060;-63
2023/11/30 11:26:19;;;;;;;9.52;6.22;;;;;;;7.49;59.25;99327.88;5046765;28;20061;-64
2023/11/30 11:28:50;;;;;;;10.15;5.82;;;;;;;7.78;59.20;99329.84;5048962;28;20048;-64
2023/11/30 11:31:17;;;;;;;12.52;6.32;;;;;;;7.71;58.61;99327.63;5051110;28;20055;-64
2023/11/30 11:33:44;;;;;;;11.82;5.82;;;;;;;7.87;58.67;99328.72;5030567;28;20048;-63
2023/11/30 11:36:13;;;;;;;13.52;6.13;;;;;;;7.90;58.67;99332.72;5046717;28;20053;-64
2023/11/30 11:38:42;;;;;;;10.00;5.80;;;;;;;8.15;58.97;99318.09;5040877;28;20552;-63